createdAt,value
2022-10-12T00:02:12.450Z,30.56
2022-10-12T00:07:14.469Z,30.38
2022-10-12T00:12:16.485Z,27.68
2022-10-12T00:17:18.410Z,27.34
2022-10-12T00:22:20.339Z,25.79
2022-10-12T00:27:22.268Z,25.19
2022-10-12T00:32:24.117Z,24.62
2022-10-12T00:37:25.989Z,25.15
2022-10-12T00:42:27.852Z,26.21
2022-10-12T00:47:34.053Z,28.93
2022-10-12T00:52:47.750Z,30.79
2022-10-12T00:57:51.921Z,27.52
2022-10-12T01:02:55.021Z,27.37
2022-10-12T01:07:56.922Z,26.04
2022-10-12T01:12:59.686Z,26.59
2022-10-12T01:18:13.789Z,27.20
2022-10-12T01:23:27.749Z,27.07
2022-10-12T01:28:54.569Z,26.32
2022-10-12T01:34:22.335Z,28.97
2022-10-12T01:39:43.730Z,28.21
2022-10-12T01:44:45.670Z,27.63
2022-10-12T01:49:47.627Z,26.33
2022-10-12T01:55:06.383Z,26.16
2022-10-12T02:00:10.185Z,26.62
2022-10-12T02:05:15.072Z,25.92
2022-10-12T02:10:25.273Z,25.33
2022-10-12T02:15:27.461Z,24.77
2022-10-12T02:20:29.430Z,25.22
2022-10-12T02:25:58.482Z,25.65
2022-10-12T02:31:23.041Z,25.20
2022-10-12T02:36:37.460Z,24.19
2022-10-12T02:41:46.598Z,24.29
2022-10-12T02:46:50.217Z,25.88
2022-10-12T02:51:53.073Z,24.96
2022-10-12T02:56:55.008Z,24.19
2022-10-12T03:01:57.571Z,24.80
2022-10-12T03:06:59.448Z,24.10
2022-10-12T03:12:01.325Z,23.70
2022-10-12T03:17:04.505Z,24.14
2022-10-12T03:22:06.616Z,24.88
2022-10-12T03:27:08.727Z,24.86
2022-10-12T03:32:10.841Z,24.48
2022-10-12T03:37:12.681Z,24.80
2022-10-12T03:42:14.608Z,24.33
2022-10-12T03:47:16.546Z,24.70
2022-10-12T03:52:18.388Z,25.19
2022-10-12T03:57:20.284Z,24.41
2022-10-12T04:02:22.518Z,23.79
2022-10-12T04:07:24.393Z,23.95
2022-10-12T04:12:26.384Z,24.08
2022-10-12T04:17:28.543Z,23.69
2022-10-12T04:22:30.401Z,24.52
2022-10-12T04:27:32.249Z,23.85
2022-10-12T04:32:34.248Z,23.46
2022-10-12T04:37:36.409Z,23.69
2022-10-12T04:42:38.545Z,24.01
2022-10-12T04:47:40.739Z,24.62
2022-10-12T04:52:42.913Z,24.92
2022-10-12T04:57:44.831Z,27.76
2022-10-12T05:02:47.492Z,30.13
2022-10-12T05:07:49.687Z,30.25
2022-10-12T05:12:51.572Z,31.06
2022-10-12T05:17:53.580Z,31.00
2022-10-12T05:22:57.884Z,30.38
2022-10-12T05:27:59.752Z,29.43
2022-10-12T05:33:01.690Z,27.42
2022-10-12T05:38:03.555Z,27.59
2022-10-12T05:43:05.441Z,27.68
2022-10-12T05:48:07.328Z,27.94
2022-10-12T05:53:09.227Z,28.15
2022-10-12T05:58:11.126Z,28.83
2022-10-12T06:03:14.116Z,28.08
2022-10-12T06:08:17.495Z,29.37
2022-10-12T06:13:19.774Z,30.13
2022-10-12T06:18:21.864Z,30.68
2022-10-12T06:23:24.056Z,30.41
2022-10-12T06:28:26.011Z,30.49
2022-10-12T06:33:28.715Z,30.35
2022-10-12T06:38:30.604Z,30.86
2022-10-12T06:43:32.615Z,31.17
2022-10-12T06:48:34.541Z,32.06
2022-10-12T06:53:36.747Z,32.31
2022-10-12T06:58:39.595Z,32.23
2022-10-12T07:03:41.513Z,32.20
2022-10-12T07:08:43.710Z,34.15
2022-10-12T07:13:45.697Z,32.10
2022-10-12T07:18:47.809Z,32.34
2022-10-12T07:23:49.670Z,32.83
2022-10-12T07:28:58.022Z,31.21
2022-10-12T07:34:06.432Z,30.93
2022-10-12T07:39:08.486Z,30.33
2022-10-12T07:44:10.861Z,31.15
2022-10-12T07:49:14.406Z,30.54
2022-10-12T07:54:21.705Z,30.00
2022-10-12T07:59:25.621Z,28.61
2022-10-12T08:04:27.585Z,29.67
2022-10-12T08:09:29.568Z,27.72
2022-10-12T08:14:31.614Z,25.68
2022-10-12T08:19:36.185Z,25.39
2022-10-12T08:24:38.215Z,23.89
2022-10-12T08:29:40.401Z,22.23
2022-10-12T08:34:42.421Z,21.52
2022-10-12T08:39:44.359Z,20.06
2022-10-12T08:44:56.585Z,17.98
2022-10-12T08:50:00.282Z,18.06
2022-10-12T08:55:06.882Z,13.36
2022-10-12T09:00:16.515Z,14.58
2022-10-12T09:05:34.225Z,10.98
2022-10-12T09:10:47.239Z,9.25
2022-10-12T09:15:53.946Z,8.27
2022-10-12T09:20:56.993Z,5.52
2022-10-12T09:26:20.087Z,5.52
2022-10-12T09:32:11.369Z,5.53
2022-10-12T09:37:21.601Z,1.94
2022-10-12T09:42:23.475Z,0.22
2022-10-12T09:47:31.408Z,-1.97
2022-10-12T09:52:36.639Z,-3.64
2022-10-12T09:57:42.189Z,-5.83
2022-10-12T10:02:49.926Z,116.14
2022-10-12T10:07:51.956Z,114.46
2022-10-12T10:12:59.098Z,114.65
2022-10-12T10:18:04.093Z,113.35
2022-10-12T10:23:06.461Z,112.60
2022-10-12T10:28:22.869Z,109.88
2022-10-12T10:33:28.623Z,108.14
2022-10-12T10:38:32.937Z,103.48
2022-10-12T10:43:35.585Z,103.44
2022-10-12T10:48:58.834Z,103.47
2022-10-12T10:54:15.263Z,106.06
2022-10-12T10:59:25.327Z,105.54
2022-10-12T11:04:35.133Z,106.08
2022-10-12T11:09:44.387Z,107.62
2022-10-12T11:14:51.481Z,107.92
2022-10-12T11:20:04.065Z,107.83
2022-10-12T11:25:23.851Z,104.34
2022-10-12T11:30:36.461Z,102.86
2022-10-12T11:35:46.789Z,102.23
2022-10-12T11:41:30.965Z,99.26
2022-10-12T11:46:16.418Z,99.80
2022-10-12T11:51:18.352Z,100.35
2022-10-12T11:56:29.221Z,100.92
2022-10-12T12:02:03.376Z,101.96
2022-10-12T12:07:41.344Z,100.98
2022-10-12T12:13:15.231Z,97.49
2022-10-12T12:18:28.992Z,96.34
2022-10-12T12:23:41.977Z,96.76
2022-10-12T12:28:48.001Z,99.43
2022-10-12T12:34:04.325Z,100.83
2022-10-12T12:39:19.914Z,101.18
2022-10-12T12:44:34.039Z,100.59
2022-10-12T12:49:46.648Z,99.62
2022-10-12T12:55:29.331Z,99.13
2022-10-12T13:00:52.333Z,93.74
2022-10-12T13:06:09.581Z,93.39
2022-10-12T13:11:30.017Z,96.69
2022-10-12T13:17:31.428Z,97.53
2022-10-12T13:22:31.987Z,97.78
2022-10-12T13:27:45.132Z,98.97
2022-10-12T13:33:02.064Z,99.42
2022-10-12T13:38:21.304Z,99.25
2022-10-12T13:43:23.192Z,100.42
2022-10-12T13:48:54.015Z,99.79
2022-10-12T13:53:48.317Z,99.78
2022-10-12T13:58:56.813Z,99.89
2022-10-12T14:04:05.555Z,99.63
2022-10-12T14:09:17.213Z,100.66
2022-10-12T14:14:33.489Z,100.72
2022-10-12T14:19:46.723Z,100.08
2022-10-12T14:24:49.122Z,99.24
2022-10-12T14:29:56.563Z,99.58
2022-10-12T14:35:18.239Z,101.03
2022-10-12T14:40:28.442Z,100.26
2022-10-12T14:45:31.920Z,101.38
2022-10-12T14:50:33.800Z,101.77
2022-10-12T14:55:35.781Z,101.39
2022-10-12T15:00:38.488Z,101.13
2022-10-12T15:05:40.618Z,102.86
2022-10-12T15:10:43.136Z,103.66
2022-10-12T15:15:49.225Z,103.99
2022-10-12T15:20:51.685Z,104.29
2022-10-12T15:25:55.485Z,104.54
2022-10-12T15:36:20.764Z,104.96
2022-10-12T15:41:31.835Z,105.89
2022-10-12T15:46:41.282Z,106.34
2022-10-12T15:51:53.950Z,108.70
2022-10-12T15:57:02.389Z,106.79
2022-10-12T16:02:10.335Z,109.84
2022-10-12T16:07:12.669Z,111.75
2022-10-12T16:12:14.928Z,112.53
2022-10-12T16:17:17.187Z,112.42
2022-10-12T16:22:19.352Z,115.49
2022-10-12T16:27:21.239Z,116.57
2022-10-12T16:32:23.235Z,117.18
2022-10-12T16:37:25.338Z,118.43
2022-10-12T16:42:27.245Z,-5.78
2022-10-12T16:47:29.198Z,-5.77
2022-10-12T16:52:32.790Z,-4.90
2022-10-12T16:57:34.716Z,118.63
2022-10-12T17:02:36.985Z,116.92
2022-10-12T17:07:39.006Z,118.89
2022-10-12T17:12:41.056Z,118.32
2022-10-12T17:17:42.934Z,-5.41
2022-10-12T17:22:44.860Z,118.16
2022-10-12T17:27:47.154Z,-3.91
2022-10-12T17:32:49.073Z,-3.70
2022-10-12T17:37:51.009Z,-4.61
2022-10-12T17:42:53.180Z,-3.80
2022-10-12T17:47:55.154Z,-2.97
2022-10-12T17:52:57.144Z,-1.67
2022-10-12T17:57:59.326Z,-0.04
2022-10-12T18:03:07.464Z,-0.44
2022-10-12T18:08:22.437Z,0.15
2022-10-12T18:13:32.216Z,3.33
2022-10-12T18:18:34.123Z,4.73
2022-10-12T18:23:36.576Z,5.77
2022-10-12T18:28:39.360Z,7.44
2022-10-12T18:33:41.224Z,8.10
2022-10-12T18:38:43.586Z,8.76
2022-10-12T18:43:45.639Z,10.19
2022-10-12T18:48:50.613Z,10.74
2022-10-12T18:53:52.685Z,11.37
2022-10-12T18:58:55.072Z,12.27
2022-10-12T19:03:58.426Z,12.99
2022-10-12T19:09:01.820Z,12.71
2022-10-12T19:14:15.983Z,12.89
2022-10-12T19:19:21.224Z,14.00
2022-10-12T19:24:23.740Z,13.86
2022-10-12T19:29:26.133Z,13.91
2022-10-12T19:34:28.147Z,13.73
2022-10-12T19:39:32.013Z,14.07
2022-10-12T19:44:34.137Z,15.45
2022-10-12T19:49:38.413Z,17.10
2022-10-12T19:54:41.874Z,16.11
2022-10-12T19:59:44.027Z,16.23
2022-10-12T20:04:46.075Z,17.87
2022-10-12T20:09:48.527Z,17.38
2022-10-12T20:14:50.560Z,16.77
2022-10-12T20:19:53.161Z,17.66
2022-10-12T20:24:55.122Z,17.35
2022-10-12T20:29:57.203Z,18.48
2022-10-12T20:34:59.092Z,18.35
2022-10-12T20:40:01.111Z,18.01
2022-10-12T20:45:03.421Z,18.75
2022-10-12T20:50:06.054Z,20.36
2022-10-12T20:55:08.999Z,18.53
2022-10-12T21:00:11.256Z,18.22
2022-10-12T21:05:13.173Z,19.12
2022-10-12T21:10:15.427Z,19.79
2022-10-12T21:15:17.753Z,19.57
2022-10-12T21:20:19.640Z,29.49
2022-10-12T21:25:21.991Z,23.89
2022-10-12T21:30:24.502Z,21.14
2022-10-12T21:35:26.633Z,20.06
2022-10-12T21:40:29.011Z,19.95
2022-10-12T21:45:31.163Z,20.19
2022-10-12T21:50:34.236Z,18.92
2022-10-12T21:55:36.163Z,18.06
2022-10-12T22:00:38.363Z,19.16
2022-10-12T22:05:42.240Z,19.78
2022-10-12T22:10:44.115Z,20.27
2022-10-12T22:15:46.029Z,20.44
2022-10-12T22:20:48.006Z,21.25
2022-10-12T22:25:50.072Z,20.63
2022-10-12T22:30:52.014Z,20.79
2022-10-12T22:35:58.558Z,21.66
2022-10-12T22:41:21.726Z,25.58
2022-10-12T22:46:25.626Z,25.48
2022-10-12T22:51:36.342Z,23.58
2022-10-12T22:56:38.263Z,21.40
2022-10-12T23:01:40.310Z,21.56
2022-10-12T23:06:42.346Z,24.49
2022-10-12T23:11:44.303Z,25.05
2022-10-12T23:16:46.299Z,23.95
2022-10-12T23:21:48.240Z,23.30
2022-10-12T23:26:50.451Z,23.16
2022-10-12T23:31:52.407Z,21.68
2022-10-12T23:36:54.380Z,21.34
2022-10-12T23:41:56.654Z,22.36
2022-10-12T23:46:58.653Z,23.69
2022-10-12T23:52:00.761Z,21.93
2022-10-12T23:57:45.280Z,20.96
